Time;durP1;ratioP1;P1;durP2;ratioP2;P2;SDS_P1;SDS_P2;PMS_P1;PMS_P2;Temp;Humidity;BMP_temperature;BMP_pressure;BME280_temperature;BME280_humidity;BME280_pressure;Samples;Min_cycle;Max_cycle;Signal;HPM_P1;HPM_P2
2022/11/03 06:39:40;;;;;;;7.72;6.35;;;;;;;;;;5475353;23;20462;-91
2022/11/03 06:42:14;;;;;;;13.02;6.45;;;;;;;;;;5021603;28;20038;-86
2022/11/03 06:44:41;;;;;;;12.27;6.32;;;;;;;;;;5010261;28;20072;-94
2022/11/03 06:47:33;;;;;;;10.48;6.05;;;;;;;;;;5001037;28;20037;-82
2022/11/03 06:49:59;;;;;;;9.15;6.50;;;;;;;;;;4997623;28;20046;-90
2022/11/03 06:52:36;;;;;;;10.30;6.22;;;;;;;;;;5001187;28;20049;-90
2022/11/03 06:55:08;;;;;;;8.23;6.85;;;;;;;;;;5000431;28;20023;-89
2022/11/03 06:57:41;;;;;;;8.10;6.43;;;;;;;;;;5000434;28;20026;-86
2022/11/03 07:00:23;;;;;;;13.77;6.85;;;;;;;;;;5000710;28;20061;-89
2022/11/03 07:03:05;;;;;;;9.38;6.75;;;;;;;;;;4999411;28;20022;-91
2022/11/03 07:05:32;;;;;;;10.00;6.70;;;;;;;;;;5016156;28;20018;-88
2022/11/03 07:08:20;;;;;;;10.73;6.18;;;;;;;;;;5017221;28;20080;-91
2022/11/03 11:01:36;;;;;;;11.02;5.65;;;;;;;;;;5142980;23;20085;-78
2022/11/03 11:04:03;;;;;;;8.55;5.90;;;;;;;;;;4958910;29;20043;-89
2022/11/03 11:06:29;;;;;;;12.80;6.05;;;;;;;;;;4958932;28;20047;-92
2022/11/03 11:09:04;;;;;;;11.50;6.15;;;;;;;;;;4959864;28;20114;-91
2022/11/03 11:11:30;;;;;;;8.25;5.60;;;;;;;;;;4957834;29;20023;-88
2022/11/03 11:14:27;;;;;;;9.35;4.95;;;;;;;;;;4958920;28;20102;-92
2022/11/03 11:16:59;;;;;;;8.40;4.72;;;;;;;;;;4960632;29;20027;-93
2022/11/03 11:19:27;;;;;;;8.48;4.40;;;;;;;;;;4959285;28;20051;-94
2022/11/03 11:21:52;;;;;;;5.82;4.40;;;;;;;;;;4959453;28;20046;-92
2022/11/03 11:24:43;;;;;;;8.77;4.57;;;;;;;;;;4961616;29;20474;-87
2022/11/03 11:27:30;;;;;;;11.07;4.70;;;;;;;;;;4958959;29;20086;-89
2022/11/03 11:29:57;;;;;;;11.73;4.32;;;;;;;;;;4958153;28;20023;-81
2022/11/03 11:32:40;;;;;;;7.15;5.25;;;;;;;;;;4958566;28;20031;-82
2022/11/03 11:35:26;;;;;;;8.88;4.65;;;;;;;;;;4958425;28;20031;-83
2022/11/03 11:37:53;;;;;;;7.53;4.82;;;;;;;;;;4928357;28;20062;-84
2022/11/03 11:40:18;;;;;;;10.65;5.38;;;;;;;;;;4957154;29;20039;-93
2022/11/03 11:43:05;;;;;;;11.77;5.53;;;;;;;;;;4958216;29;20027;-83
2022/11/03 11:46:08;;;;;;;6.10;4.90;;;;;;;;;;4957861;29;20030;-88
2022/11/03 11:48:34;;;;;;;8.63;5.07;;;;;;;;;;4956140;28;20470;-83
2022/11/03 11:51:00;;;;;;;9.75;4.97;;;;;;;;;;4971889;28;20042;-89
2022/11/03 11:53:27;;;;;;;7.60;4.60;;;;;;;;;;4978333;28;20042;-88
2022/11/03 11:55:57;;;;;;;11.45;5.18;;;;;;;;;;4974110;28;20019;-87
2022/11/03 11:58:36;;;;;;;9.77;4.97;;;;;;;;;;4964442;28;20434;-88
2022/11/03 12:01:20;;;;;;;9.52;4.57;;;;;;;;;;4958057;28;20034;-84
2022/11/03 12:03:47;;;;;;;10.27;4.93;;;;;;;;;;4974445;28;20043;-86
2022/11/03 12:06:13;;;;;;;9.25;4.70;;;;;;;;;;4976384;28;20023;-80
2022/11/03 12:08:39;;;;;;;10.45;4.80;;;;;;;;;;4976214;28;20018;-85
2022/11/03 12:11:07;;;;;;;9.32;5.15;;;;;;;;;;4977881;28;20121;-85
2022/11/03 12:13:42;;;;;;;9.75;5.53;;;;;;;;;;4976557;28;20082;-84
2022/11/03 12:16:09;;;;;;;8.15;4.28;;;;;;;;;;4976190;28;20023;-85
2022/11/03 12:18:42;;;;;;;8.85;5.13;;;;;;;;;;4976598;28;20454;-85
2022/11/03 12:21:45;;;;;;;7.53;5.10;;;;;;;;;;4976262;28;20486;-85
2022/11/03 12:24:35;;;;;;;10.63;6.05;;;;;;;;;;4976028;28;20026;-84
2022/11/03 12:27:01;;;;;;;;;;;;;;;;;;4959288;28;20149;-85
2022/11/03 12:29:26;;;;;;;13.50;6.80;;;;;;;;;;4975990;28;20289;-85
2022/11/03 12:31:52;;;;;;;12.55;6.90;;;;;;;;;;4976020;28;20037;-84
2022/11/03 12:34:18;;;;;;;13.05;7.35;;;;;;;;;;4976221;28;20050;-84
2022/11/03 12:36:44;;;;;;;12.48;5.82;;;;;;;;;;4975829;28;20038;-85
2022/11/03 12:39:10;;;;;;;11.88;5.85;;;;;;;;;;4975854;28;20474;-85
2022/11/03 12:41:35;;;;;;;7.25;5.53;;;;;;;;;;4976064;28;20038;-81
2022/11/03 12:44:02;;;;;;;10.02;5.68;;;;;;;;;;4976737;28;20431;-85
2022/11/03 12:46:28;;;;;;;14.10;6.40;;;;;;;;;;4959746;28;20118;-83
2022/11/03 12:48:56;;;;;;;11.88;5.78;;;;;;;;;;4963373;28;20121;-84
2022/11/03 12:51:24;;;;;;;10.68;5.95;;;;;;;;;;4995191;28;20027;-86
2022/11/03 12:53:50;;;;;;;11.65;5.75;;;;;;;;;;4995395;28;20022;-82
2022/11/03 12:56:17;;;;;;;11.68;5.03;;;;;;;;;;4996837;28;20026;-82
2022/11/03 12:58:43;;;;;;;7.40;5.47;;;;;;;;;;4978011;28;20027;-80
2022/11/03 13:01:08;;;;;;;11.18;6.05;;;;;;;;;;4993219;28;20031;-87
2022/11/03 13:03:35;;;;;;;13.00;6.30;;;;;;;;;;4980052;28;20047;-87
2022/11/03 13:06:03;;;;;;;12.15;6.15;;;;;;;;;;4976754;28;20038;-88
2022/11/03 13:08:36;;;;;;;11.65;6.53;;;;;;;;;;4977155;28;20049;-87
2022/11/03 13:11:01;;;;;;;12.38;6.78;;;;;;;;;;4976736;28;20113;-88
2022/11/03 13:13:26;;;;;;;13.60;6.55;;;;;;;;;;4976388;28;20113;-88
2022/11/03 13:15:52;;;;;;;13.43;6.28;;;;;;;;;;4976416;28;20030;-86
2022/11/03 13:18:19;;;;;;;14.32;7.70;;;;;;;;;;4975820;28;20466;-87
2022/11/03 13:20:45;;;;;;;14.13;6.70;;;;;;;;;;4975651;28;20382;-89
2022/11/03 13:23:18;;;;;;;10.27;6.70;;;;;;;;;;4958607;28;20296;-88
2022/11/03 13:25:47;;;;;;;9.73;5.80;;;;;;;;;;4975804;28;20105;-82
2022/11/03 13:28:13;;;;;;;11.43;6.32;;;;;;;;;;4958245;28;20096;-81
2022/11/03 13:30:42;;;;;;;15.52;7.25;;;;;;;;;;4975254;28;20054;-82
2022/11/03 13:33:07;;;;;;;10.48;6.30;;;;;;;;;;4976081;28;20026;-84
2022/11/03 13:35:35;;;;;;;11.43;6.47;;;;;;;;;;4975256;28;20504;-84
2022/11/03 13:38:01;;;;;;;13.40;6.28;;;;;;;;;;4975957;28;20023;-83
2022/11/03 13:40:26;;;;;;;9.73;5.68;;;;;;;;;;4977688;28;20466;-83
2022/11/03 13:42:52;;;;;;;11.77;5.90;;;;;;;;;;4975486;28;20031;-86
2022/11/03 17:43:26;;;;;;;27.73;16.38;;;;;;;;;;5342831;23;20097;-87
2022/11/03 17:45:52;;;;;;;32.63;19.77;;;;;;;;;;4995227;28;20053;-84
2022/11/03 17:48:18;;;;;;;30.40;18.42;;;;;;;;;;4994180;28;20023;-89
2022/11/03 17:50:47;;;;;;;26.92;17.10;;;;;;;;;;4987851;28;20054;-92
2022/11/03 17:53:23;;;;;;;26.08;15.68;;;;;;;;;;4973946;28;20073;-83
2022/11/03 17:55:51;;;;;;;22.45;15.57;;;;;;;;;;4974989;28;20026;-85
2022/11/03 17:58:16;;;;;;;26.90;16.30;;;;;;;;;;4975452;28;20027;-91
2022/11/03 18:00:43;;;;;;;25.75;16.13;;;;;;;;;;4975907;28;20101;-82
2022/11/03 18:03:13;;;;;;;26.52;16.75;;;;;;;;;;4976442;28;20478;-88
2022/11/03 18:05:40;;;;;;;30.15;16.40;;;;;;;;;;4975341;28;20034;-91
2022/11/03 18:08:08;;;;;;;22.67;14.80;;;;;;;;;;4975244;28;20401;-81
2022/11/03 18:10:38;;;;;;;26.10;16.03;;;;;;;;;;4974730;28;20035;-89
2022/11/03 18:13:16;;;;;;;;;;;;;;;;;;4975275;28;20269;-81
2022/11/03 18:15:52;;;;;;;24.65;13.45;;;;;;;;;;4974888;28;19910;-87
2022/11/03 18:18:21;;;;;;;25.15;15.38;;;;;;;;;;4974840;28;20381;-82
2022/11/03 18:20:49;;;;;;;25.85;16.95;;;;;;;;;;4974366;28;20098;-81
2022/11/03 18:23:20;;;;;;;26.03;15.87;;;;;;;;;;4975340;28;20050;-76
2022/11/03 18:25:47;;;;;;;27.08;14.88;;;;;;;;;;4982629;28;20253;-90
2022/11/03 18:28:13;;;;;;;23.40;14.68;;;;;;;;;;4975693;28;20114;-88
2022/11/03 18:30:40;;;;;;;28.85;18.08;;;;;;;;;;4974760;28;20026;-90
2022/11/03 18:33:13;;;;;;;24.67;16.08;;;;;;;;;;4975581;28;20359;-91
2022/11/03 18:35:39;;;;;;;23.38;15.75;;;;;;;;;;4974665;28;20023;-89
2022/11/03 18:38:10;;;;;;;25.00;16.55;;;;;;;;;;4975305;28;20027;-81
2022/11/03 18:40:37;;;;;;;24.60;16.25;;;;;;;;;;4975272;28;20027;-89
2022/11/03 18:43:18;;;;;;;26.75;15.48;;;;;;;;;;4974866;28;20023;-80
2022/11/03 18:45:43;;;;;;;30.38;15.50;;;;;;;;;;4992021;28;20055;-80
2022/11/03 18:48:13;;;;;;;40.08;29.02;;;;;;;;;;4994277;28;20027;-89
2022/11/03 18:50:40;;;;;;;29.17;20.67;;;;;;;;;;4994713;28;20030;-90
2022/11/03 18:53:05;;;;;;;23.80;15.43;;;;;;;;;;4977152;28;20057;-79
2022/11/03 18:55:31;;;;;;;22.75;13.77;;;;;;;;;;4996136;28;20026;-91
2022/11/03 18:57:56;;;;;;;22.33;15.30;;;;;;;;;;5000629;28;20105;-88
2022/11/03 19:00:22;;;;;;;24.73;15.38;;;;;;;;;;4996745;28;20037;-81
2022/11/03 19:02:49;;;;;;;24.60;16.15;;;;;;;;;;5000428;28;20084;-81
2022/11/03 19:05:16;;;;;;;24.75;15.73;;;;;;;;;;4997456;28;20026;-83
2022/11/03 19:07:44;;;;;;;28.08;15.65;;;;;;;;;;4997975;28;20033;-94
2022/11/03 19:10:15;;;;;;;25.03;15.50;;;;;;;;;;4998513;28;20030;-93
2022/11/03 19:12:42;;;;;;;24.33;15.35;;;;;;;;;;4997683;28;20031;-82
2022/11/03 19:15:26;;;;;;;28.58;16.58;;;;;;;;;;4979749;28;20034;-82
2022/11/03 19:17:55;;;;;;;30.27;17.65;;;;;;;;;;4997943;28;20053;-82
2022/11/03 19:20:22;;;;;;;28.02;18.60;;;;;;;;;;4980050;28;20026;-81
2022/11/03 19:22:47;;;;;;;28.00;19.27;;;;;;;;;;4997272;28;20084;-86
2022/11/03 19:25:14;;;;;;;34.00;19.98;;;;;;;;;;5018036;28;20022;-91
2022/11/03 19:27:42;;;;;;;31.15;20.10;;;;;;;;;;5021223;28;20030;-91
2022/11/03 19:30:11;;;;;;;32.22;18.95;;;;;;;;;;5017460;28;20030;-93
2022/11/03 19:32:44;;;;;;;29.10;17.58;;;;;;;;;;5017865;28;20037;-82
2022/11/03 19:35:31;;;;;;;29.50;18.83;;;;;;;;;;5017739;28;20056;-86
2022/11/03 19:38:03;;;;;;;29.30;18.95;;;;;;;;;;5018619;28;20026;-86
2022/11/03 19:40:38;;;;;;;34.85;20.67;;;;;;;;;;5018712;28;20081;-88
2022/11/03 19:43:09;;;;;;;34.50;20.92;;;;;;;;;;4999368;28;20022;-86
2022/11/03 19:45:35;;;;;;;31.15;19.40;;;;;;;;;;4993306;28;20516;-90
2022/11/03 19:48:04;;;;;;;33.03;18.30;;;;;;;;;;4979594;28;20030;-88
2022/11/03 19:50:31;;;;;;;27.10;16.60;;;;;;;;;;4996340;28;20031;-88
2022/11/03 19:53:17;;;;;;;28.70;16.55;;;;;;;;;;4997096;28;20034;-87
2022/11/03 19:55:43;;;;;;;23.23;15.95;;;;;;;;;;4980464;28;20169;-85
2022/11/03 19:58:18;;;;;;;30.95;17.70;;;;;;;;;;5000210;28;20070;-88
2022/11/03 20:00:45;;;;;;;26.55;18.27;;;;;;;;;;4998106;28;20037;-89
2022/11/03 20:03:10;;;;;;;34.22;22.52;;;;;;;;;;5016058;28;20394;-87
2022/11/03 20:05:36;;;;;;;34.83;20.52;;;;;;;;;;5016214;28;20033;-88
2022/11/03 20:08:05;;;;;;;32.47;20.67;;;;;;;;;;5015852;28;20137;-82
2022/11/03 20:10:31;;;;;;;32.08;19.13;;;;;;;;;;5015544;28;20112;-87
2022/11/03 20:12:57;;;;;;;31.77;18.40;;;;;;;;;;5015847;28;20061;-85
2022/11/03 20:15:23;;;;;;;33.75;18.60;;;;;;;;;;5015672;28;20032;-91
2022/11/03 20:17:49;;;;;;;29.77;18.88;;;;;;;;;;5015797;28;20432;-87
2022/11/03 20:20:21;;;;;;;30.15;17.80;;;;;;;;;;5015456;28;20025;-88
2022/11/03 20:22:57;;;;;;;22.42;13.98;;;;;;;;;;5015841;28;20026;-86
2022/11/03 20:25:26;;;;;;;18.38;11.43;;;;;;;;;;5015593;28;20056;-84
2022/11/03 20:27:52;;;;;;;21.75;13.25;;;;;;;;;;5015377;28;20028;-85
2022/11/03 20:30:20;;;;;;;17.02;11.23;;;;;;;;;;4997904;28;20040;-90
2022/11/03 20:32:46;;;;;;;20.08;12.10;;;;;;;;;;5015495;28;20033;-84
2022/11/03 20:35:15;;;;;;;18.88;12.40;;;;;;;;;;5014961;28;20414;-81
2022/11/03 20:37:43;;;;;;;22.13;13.95;;;;;;;;;;5015146;28;20022;-81
2022/11/03 20:40:21;;;;;;;22.65;14.15;;;;;;;;;;5014892;28;20446;-83
2022/11/03 20:42:53;;;;;;;26.05;14.55;;;;;;;;;;4976088;28;20035;-79
2022/11/03 20:45:20;;;;;;;24.15;15.27;;;;;;;;;;4975597;28;20058;-81
2022/11/03 20:47:46;;;;;;;27.23;14.88;;;;;;;;;;4975768;28;20070;-82
2022/11/03 20:50:13;;;;;;;24.30;15.25;;;;;;;;;;4988524;28;20046;-90
2022/11/03 20:52:40;;;;;;;24.73;15.45;;;;;;;;;;5000613;28;20038;-86
2022/11/03 20:55:24;;;;;;;25.05;16.23;;;;;;;;;;4995360;28;20131;-89
2022/11/03 20:57:51;;;;;;;26.98;15.77;;;;;;;;;;4995432;28;20112;-89
2022/11/03 21:00:20;;;;;;;28.00;17.75;;;;;;;;;;4978648;28;20018;-94
2022/11/03 21:02:46;;;;;;;25.60;16.13;;;;;;;;;;4995422;28;20481;-93
2022/11/03 21:05:23;;;;;;;21.25;13.38;;;;;;;;;;4995730;28;20022;-93
2022/11/03 21:07:49;;;;;;;14.77;10.15;;;;;;;;;;4978295;28;20019;-93
2022/11/03 21:10:17;;;;;;;15.82;9.68;;;;;;;;;;4995481;28;20037;-91
2022/11/03 21:12:43;;;;;;;15.68;10.38;;;;;;;;;;4995115;28;20022;-90
2022/11/03 21:21:03;;;;;;;8.63;6.43;;;;;;;;;;4994876;28;20173;-87
2022/11/03 21:23:29;;;;;;;8.27;5.45;;;;;;;;;;4994402;28;20054;-88
2022/11/03 21:25:56;;;;;;;7.90;5.57;;;;;;;;;;4994939;28;20037;-87
2022/11/03 21:28:22;;;;;;;8.38;5.55;;;;;;;;;;4994895;28;20113;-87
2022/11/03 21:30:50;;;;;;;8.82;6.05;;;;;;;;;;4994430;28;20034;-88
2022/11/03 21:33:16;;;;;;;8.43;5.30;;;;;;;;;;4994738;28;20037;-88
2022/11/03 21:35:43;;;;;;;6.63;5.10;;;;;;;;;;4995170;28;20022;-95
2022/11/03 21:38:10;;;;;;;6.30;5.05;;;;;;;;;;4977444;28;20122;-88
2022/11/03 21:40:35;;;;;;;8.30;5.35;;;;;;;;;;4994686;28;20058;-94
2022/11/03 21:45:45;;;;;;;8.38;4.72;;;;;;;;;;4994543;28;20045;-88
2022/11/03 21:51:09;;;;;;;7.65;4.63;;;;;;;;;;4961894;28;20047;-86
2022/11/03 21:53:34;;;;;;;5.32;4.82;;;;;;;;;;4995169;28;20026;-87
2022/11/03 21:55:59;;;;;;;4.93;4.30;;;;;;;;;;4994458;28;20033;-94
2022/11/03 21:58:25;;;;;;;5.97;4.18;;;;;;;;;;4994928;28;20022;-93
2022/11/03 22:00:50;;;;;;;5.07;4.22;;;;;;;;;;4994738;28;20031;-86
2022/11/03 22:03:16;;;;;;;5.25;4.68;;;;;;;;;;4994408;28;20022;-93
2022/11/03 22:05:41;;;;;;;7.70;4.13;;;;;;;;;;4994863;28;20026;-92
2022/11/03 22:08:07;;;;;;;6.80;4.90;;;;;;;;;;4994984;28;20029;-85
2022/11/03 22:10:32;;;;;;;8.52;5.50;;;;;;;;;;4994502;28;20034;-85
2022/11/03 22:12:58;;;;;;;8.18;5.97;;;;;;;;;;4994419;28;20069;-90
